createdAt,value
2022-12-27T00:02:18.356Z,5.50
2022-12-27T00:04:44.775Z,5.54
2022-12-27T00:07:11.165Z,5.56
2022-12-27T00:09:37.580Z,5.62
2022-12-27T00:12:04.332Z,5.48
2022-12-27T00:14:44.038Z,5.62
2022-12-27T00:17:10.419Z,5.90
2022-12-27T00:19:36.815Z,5.75
2022-12-27T00:22:05.252Z,5.35
2022-12-27T00:24:31.647Z,5.01
2022-12-27T00:26:58.015Z,4.84
2022-12-27T00:29:24.429Z,4.74
2022-12-27T00:31:50.982Z,4.63
2022-12-27T00:34:17.433Z,4.69
2022-12-27T00:36:44.982Z,4.58
2022-12-27T00:39:11.681Z,4.57
2022-12-27T00:41:38.937Z,4.71
2022-12-27T00:44:05.467Z,4.57
2022-12-27T00:46:31.868Z,4.69
2022-12-27T00:48:58.665Z,4.74
2022-12-27T00:51:25.506Z,5.02
2022-12-27T00:53:52.961Z,4.96
2022-12-27T00:56:22.401Z,5.10
2022-12-27T00:58:53.388Z,5.10
2022-12-27T01:01:21.689Z,5.13
2022-12-27T01:03:48.182Z,5.11
2022-12-27T01:06:19.505Z,5.14
2022-12-27T01:08:47.097Z,5.02
2022-12-27T01:11:19.536Z,5.14
2022-12-27T01:13:46.100Z,5.16
2022-12-27T01:16:23.491Z,5.44
2022-12-27T01:18:50.459Z,5.31
2022-12-27T01:21:20.624Z,5.39
2022-12-27T01:23:48.101Z,5.43
2022-12-27T01:26:18.246Z,5.46
2022-12-27T01:28:45.212Z,5.31
2022-12-27T01:31:15.075Z,5.37
2022-12-27T01:33:42.469Z,4.64
2022-12-27T01:36:08.793Z,4.40
2022-12-27T01:38:35.229Z,3.90
2022-12-27T01:41:21.631Z,3.58
2022-12-27T01:43:48.090Z,3.42
2022-12-27T01:46:14.657Z,3.23
2022-12-27T01:48:41.389Z,3.44
2022-12-27T01:51:09.192Z,3.18
2022-12-27T01:53:43.580Z,3.38
2022-12-27T01:56:39.937Z,3.27
2022-12-27T01:59:09.443Z,3.08
2022-12-27T02:01:42.777Z,3.05
2022-12-27T02:04:14.649Z,3.16
2022-12-27T02:06:41.929Z,3.22
2022-12-27T02:09:34.526Z,3.30
2022-12-27T02:12:02.985Z,3.29
2022-12-27T02:14:33.150Z,3.40
2022-12-27T02:17:02.549Z,3.42
2022-12-27T02:19:34.863Z,3.41
2022-12-27T02:22:13.713Z,3.23
2022-12-27T02:24:58.332Z,3.45
2022-12-27T02:27:56.996Z,3.37
2022-12-27T02:30:24.021Z,3.21
2022-12-27T02:32:58.240Z,3.30
2022-12-27T02:35:36.664Z,3.27
2022-12-27T02:38:18.501Z,3.33
2022-12-27T02:41:05.147Z,3.25
2022-12-27T02:43:50.950Z,3.15
2022-12-27T02:46:48.885Z,3.50
2022-12-27T02:49:48.977Z,3.56
2022-12-27T02:52:49.176Z,3.16
2022-12-27T02:56:07.315Z,2.97
2022-12-27T02:59:14.449Z,2.89
2022-12-27T03:02:22.116Z,3.08
2022-12-27T03:05:08.786Z,2.89
2022-12-27T03:07:51.292Z,3.05
2022-12-27T03:11:05.311Z,2.84
2022-12-27T03:14:05.441Z,2.89
2022-12-27T03:16:41.512Z,2.82
2022-12-27T03:19:40.660Z,2.98
2022-12-27T03:22:28.248Z,2.99
2022-12-27T03:25:15.605Z,3.01
2022-12-27T03:28:06.468Z,2.74
2022-12-27T03:31:12.335Z,2.79
2022-12-27T03:33:41.748Z,2.54
2022-12-27T03:36:34.553Z,2.47
2022-12-27T03:39:15.435Z,2.60
2022-12-27T03:42:12.264Z,2.51
2022-12-27T03:44:39.635Z,2.37
2022-12-27T03:47:23.044Z,2.61
2022-12-27T03:49:56.873Z,2.69
2022-12-27T03:52:42.218Z,2.57
2022-12-27T03:55:09.903Z,2.72
2022-12-27T03:57:37.370Z,2.76
2022-12-27T04:00:09.363Z,2.88
2022-12-27T04:02:35.976Z,2.81
2022-12-27T04:05:02.556Z,2.99
2022-12-27T04:07:28.982Z,2.82
2022-12-27T04:10:13.989Z,2.75
2022-12-27T04:12:58.859Z,2.97
2022-12-27T04:15:43.856Z,2.85
2022-12-27T04:18:28.686Z,3.01
2022-12-27T04:21:13.509Z,3.09
2022-12-27T04:23:58.431Z,3.10
2022-12-27T04:26:43.101Z,3.16
2022-12-27T04:29:27.808Z,3.14
2022-12-27T04:32:13.044Z,3.18
2022-12-27T04:34:45.063Z,3.33
2022-12-27T04:37:14.843Z,3.27
2022-12-27T04:39:42.385Z,3.11
2022-12-27T04:42:28.583Z,3.26
2022-12-27T04:45:15.521Z,3.42
2022-12-27T04:48:00.877Z,3.28
2022-12-27T04:50:50.604Z,3.28
2022-12-27T04:53:38.004Z,3.28
2022-12-27T04:56:05.469Z,3.32
2022-12-27T04:58:32.787Z,3.37
2022-12-27T05:01:37.212Z,3.36
2022-12-27T05:04:03.821Z,3.32
2022-12-27T05:06:40.761Z,3.28
2022-12-27T05:09:25.739Z,3.22
2022-12-27T05:12:20.793Z,3.11
2022-12-27T05:14:47.160Z,2.99
2022-12-27T05:17:13.722Z,3.01
2022-12-27T05:19:40.100Z,2.93
2022-12-27T05:22:25.128Z,3.03
2022-12-27T05:25:10.046Z,2.94
2022-12-27T05:27:36.422Z,2.91
2022-12-27T05:30:02.926Z,3.07
2022-12-27T05:32:29.343Z,3.07
2022-12-27T05:34:55.746Z,3.18
2022-12-27T05:37:22.143Z,3.04
2022-12-27T05:39:48.539Z,3.05
2022-12-27T05:42:14.973Z,3.01
2022-12-27T05:44:41.368Z,3.05
2022-12-27T05:47:07.748Z,2.91
2022-12-27T05:49:34.129Z,2.75
2022-12-27T05:52:00.512Z,2.74
2022-12-27T05:54:26.906Z,2.76
2022-12-27T05:56:53.288Z,2.66
2022-12-27T05:59:19.773Z,2.40
2022-12-27T06:01:46.340Z,2.51
2022-12-27T06:04:12.924Z,2.55
2022-12-27T06:06:39.351Z,2.78
2022-12-27T06:09:05.751Z,2.65
2022-12-27T06:11:32.237Z,2.63
2022-12-27T06:13:58.624Z,2.59
2022-12-27T06:16:25.075Z,2.63
2022-12-27T06:18:51.520Z,2.58
2022-12-27T06:21:20.528Z,2.79
2022-12-27T06:23:48.278Z,2.70
2022-12-27T06:26:20.371Z,2.72
2022-12-27T06:28:48.939Z,2.66
2022-12-27T06:31:19.362Z,2.66
2022-12-27T06:33:46.587Z,2.66
2022-12-27T06:36:15.299Z,2.68
2022-12-27T06:38:42.192Z,2.77
2022-12-27T06:41:10.938Z,2.72
2022-12-27T06:43:37.944Z,2.77
2022-12-27T06:46:07.130Z,2.84
2022-12-27T06:48:33.986Z,2.86
2022-12-27T06:51:04.186Z,2.78
2022-12-27T06:53:30.664Z,2.83
2022-12-27T06:56:06.876Z,2.71
2022-12-27T06:58:33.598Z,2.91
2022-12-27T07:01:11.147Z,2.85
2022-12-27T07:03:37.984Z,2.96
2022-12-27T07:06:06.053Z,2.98
2022-12-27T07:08:32.985Z,2.92
2022-12-27T07:11:02.175Z,2.72
2022-12-27T07:13:29.508Z,2.74
2022-12-27T07:15:55.928Z,2.77
2022-12-27T07:18:22.320Z,2.88
2022-12-27T07:20:48.714Z,2.70
2022-12-27T07:23:19.406Z,2.75
2022-12-27T07:25:46.023Z,2.56
2022-12-27T07:28:14.928Z,2.88
2022-12-27T07:30:42.330Z,2.97
2022-12-27T07:33:09.148Z,2.85
2022-12-27T07:35:38.505Z,2.81
2022-12-27T07:38:07.251Z,2.66
2022-12-27T07:40:36.807Z,2.81
2022-12-27T07:43:03.583Z,2.86
2022-12-27T07:45:30.216Z,2.80
2022-12-27T07:47:56.637Z,2.73
2022-12-27T07:50:23.088Z,2.90
2022-12-27T07:52:50.089Z,2.89
2022-12-27T07:55:16.509Z,3.00
2022-12-27T07:57:42.893Z,2.96
2022-12-27T08:00:09.990Z,2.87
2022-12-27T08:02:36.392Z,3.07
2022-12-27T08:05:02.848Z,3.01
2022-12-27T08:07:29.282Z,2.98
2022-12-27T08:09:55.669Z,3.09
2022-12-27T08:12:22.124Z,2.95
2022-12-27T08:14:49.635Z,2.98
2022-12-27T08:17:25.201Z,3.02
2022-12-27T08:19:52.272Z,3.23
2022-12-27T08:22:18.899Z,3.32
2022-12-27T08:24:45.416Z,3.37
2022-12-27T08:27:12.275Z,3.23
2022-12-27T08:29:38.670Z,3.15
2022-12-27T08:32:05.448Z,3.33
2022-12-27T08:34:31.854Z,3.28
2022-12-27T08:36:58.256Z,3.33
2022-12-27T08:39:24.721Z,3.43
2022-12-27T08:41:56.307Z,3.36
2022-12-27T08:44:24.788Z,3.50
2022-12-27T08:46:51.439Z,3.60
2022-12-27T08:49:17.891Z,3.83
2022-12-27T08:51:51.213Z,3.69
2022-12-27T08:54:17.602Z,3.45
2022-12-27T08:56:47.193Z,3.55
2022-12-27T08:59:14.603Z,3.91
2022-12-27T09:01:41.116Z,3.77
2022-12-27T09:04:08.682Z,4.00
2022-12-27T09:06:35.106Z,3.96
2022-12-27T09:09:01.613Z,3.76
2022-12-27T09:11:33.272Z,3.54
2022-12-27T09:14:06.847Z,3.66
2022-12-27T09:16:36.510Z,4.03
2022-12-27T09:19:04.504Z,3.72
2022-12-27T09:21:34.046Z,3.55
2022-12-27T09:24:00.484Z,3.35
2022-12-27T09:26:37.253Z,3.42
2022-12-27T09:29:04.791Z,3.48
2022-12-27T09:31:33.471Z,3.63
2022-12-27T09:33:59.954Z,3.25
2022-12-27T09:36:28.729Z,3.39
2022-12-27T09:38:56.726Z,3.28
2022-12-27T09:42:44.543Z,3.47
2022-12-27T09:45:12.533Z,3.38
2022-12-27T09:48:00.304Z,3.66
2022-12-27T09:50:47.131Z,3.70
